Time;durP1;ratioP1;P1;durP2;ratioP2;P2;SDS_P1;SDS_P2;PMS_P1;PMS_P2;Temp;Humidity;BMP_temperature;BMP_pressure;BME280_temperature;BME280_humidity;BME280_pressure;Samples;Min_cycle;Max_cycle;Signal;HPM_P1;HPM_P2
2023/03/14 00:00:05;;;;;;;4.72;1.48;;;;;;;;;;5054178;28;20126;-76
2023/03/14 00:02:32;;;;;;;3.40;1.30;;;;;;;;;;5054137;28;20619;-76
2023/03/14 00:04:59;;;;;;;2.70;0.93;;;;;;;;;;5062029;28;20132;-76
2023/03/14 00:07:28;;;;;;;1.73;0.60;;;;;;;;;;5058119;28;20045;-77
2023/03/14 00:09:54;;;;;;;1.38;0.40;;;;;;;;;;5069161;28;20653;-77
2023/03/14 00:12:21;;;;;;;1.70;0.40;;;;;;;;;;5073153;28;20131;-76
2023/03/14 00:14:48;;;;;;;1.05;0.50;;;;;;;;;;5064423;28;20041;-76
2023/03/14 00:17:14;;;;;;;3.67;1.17;;;;;;;;;;5053588;28;20123;-77
2023/03/14 00:19:41;;;;;;;0.68;0.40;;;;;;;;;;5053907;28;20052;-76
2023/03/14 00:22:07;;;;;;;1.25;0.50;;;;;;;;;;5053761;28;20575;-77
2023/03/14 00:24:35;;;;;;;0.93;0.50;;;;;;;;;;5053919;28;20059;-77
2023/03/14 00:27:02;;;;;;;2.15;0.50;;;;;;;;;;5053576;28;20128;-76
2023/03/14 00:29:29;;;;;;;1.35;0.68;;;;;;;;;;5041532;28;20056;-76
2023/03/14 00:31:55;;;;;;;1.52;0.55;;;;;;;;;;5033953;28;20077;-76
2023/03/14 00:34:22;;;;;;;2.17;0.60;;;;;;;;;;5033510;28;20477;-76
2023/03/14 00:36:49;;;;;;;0.75;0.40;;;;;;;;;;5033182;28;20084;-76
2023/03/14 00:39:16;;;;;;;3.30;1.67;;;;;;;;;;5052415;28;20049;-76
2023/03/14 00:41:44;;;;;;;0.80;0.50;;;;;;;;;;5073516;28;20044;-76
2023/03/14 00:44:10;;;;;;;1.55;0.60;;;;;;;;;;5060546;28;20068;-76
2023/03/14 00:46:37;;;;;;;1.02;0.50;;;;;;;;;;5073114;28;20048;-76
2023/03/14 00:49:03;;;;;;;2.50;1.20;;;;;;;;;;5073138;28;20048;-76
2023/03/14 00:51:30;;;;;;;2.78;1.10;;;;;;;;;;5073520;28;20383;-77
2023/03/14 00:53:57;;;;;;;1.88;0.60;;;;;;;;;;5075750;28;20051;-76
2023/03/14 00:56:24;;;;;;;3.33;1.55;;;;;;;;;;5075513;28;20131;-77
2023/03/14 00:58:54;;;;;;;2.03;1.10;;;;;;;;;;5073412;28;20051;-76
2023/03/14 01:01:21;;;;;;;2.35;0.80;;;;;;;;;;5072998;28;20586;-77
2023/03/14 01:03:47;;;;;;;1.58;0.50;;;;;;;;;;5073577;28;20051;-78
2023/03/14 01:06:16;;;;;;;1.75;0.98;;;;;;;;;;5067471;28;20124;-78
2023/03/14 01:08:44;;;;;;;1.35;0.60;;;;;;;;;;5054152;28;20048;-78
2023/03/14 01:11:13;;;;;;;3.47;0.88;;;;;;;;;;5053768;28;20072;-78
2023/03/14 01:13:39;;;;;;;4.82;1.65;;;;;;;;;;5054260;28;20045;-78
2023/03/14 01:16:10;;;;;;;1.98;0.68;;;;;;;;;;5072129;28;20072;-78
2023/03/14 01:18:37;;;;;;;2.20;0.85;;;;;;;;;;5070283;28;20123;-78
2023/03/14 01:21:04;;;;;;;0.90;0.60;;;;;;;;;;5054365;28;20132;-77
2023/03/14 01:23:31;;;;;;;1.33;0.57;;;;;;;;;;5053034;28;20090;-77
2023/03/14 01:25:57;;;;;;;2.30;0.60;;;;;;;;;;5052154;28;20053;-77
2023/03/14 01:28:25;;;;;;;2.15;0.52;;;;;;;;;;5072456;28;20045;-76
2023/03/14 01:30:51;;;;;;;0.80;0.50;;;;;;;;;;5056339;28;20107;-76
2023/03/14 01:33:19;;;;;;;3.67;0.75;;;;;;;;;;5056934;28;20079;-77
2023/03/14 01:35:46;;;;;;;3.75;1.48;;;;;;;;;;5056089;28;20132;-77
2023/03/14 01:38:14;;;;;;;2.88;0.77;;;;;;;;;;5059949;28;20077;-76
2023/03/14 01:40:45;;;;;;;2.03;0.60;;;;;;;;;;5055728;28;20065;-78
2023/03/14 01:43:16;;;;;;;;;;;;;;;;;;5056021;28;20048;-77
2023/03/14 01:46:20;;;;;;;2.60;0.75;;;;;;;;;;5065620;28;19921;-78
2023/03/14 01:48:55;;;;;;;1.95;0.50;;;;;;;;;;5057823;28;20068;-78
2023/03/14 01:51:27;;;;;;;1.45;0.50;;;;;;;;;;5072107;28;20506;-78
2023/03/14 01:53:59;;;;;;;0.82;0.47;;;;;;;;;;5073371;28;20083;-76
2023/03/14 01:56:27;;;;;;;0.80;0.40;;;;;;;;;;5077162;28;20044;-76
2023/03/14 01:58:56;;;;;;;1.48;0.60;;;;;;;;;;5070808;28;20041;-77
2023/03/14 02:01:26;;;;;;;0.95;0.45;;;;;;;;;;5055746;28;20055;-76
2023/03/14 02:03:57;;;;;;;0.93;0.40;;;;;;;;;;5053036;28;20095;-77
2023/03/14 02:06:27;;;;;;;2.45;0.68;;;;;;;;;;5052595;28;20069;-76
2023/03/14 02:08:54;;;;;;;1.00;0.40;;;;;;;;;;5053174;28;20579;-76
2023/03/14 02:11:21;;;;;;;2.00;0.40;;;;;;;;;;5053768;28;20771;-76
2023/03/14 02:13:49;;;;;;;2.75;0.50;;;;;;;;;;5054655;28;20041;-77
2023/03/14 02:16:15;;;;;;;1.90;0.40;;;;;;;;;;5072866;28;20415;-76
2023/03/14 02:18:42;;;;;;;2.20;0.60;;;;;;;;;;5054439;28;20132;-75
2023/03/14 02:21:19;;;;;;;0.70;0.40;;;;;;;;;;5052124;28;20439;-77
2023/03/14 02:23:53;;;;;;;1.02;0.60;;;;;;;;;;5052518;28;20067;-77
2023/03/14 02:26:24;;;;;;;1.30;0.40;;;;;;;;;;5053138;28;20049;-76
2023/03/14 02:28:53;;;;;;;1.17;0.40;;;;;;;;;;5056622;28;20060;-76
2023/03/14 02:31:23;;;;;;;0.93;0.40;;;;;;;;;;5067502;28;20098;-77
2023/03/14 02:33:51;;;;;;;0.83;0.30;;;;;;;;;;5059932;28;20538;-77
2023/03/14 02:36:21;;;;;;;1.48;0.47;;;;;;;;;;5059418;28;20128;-77
2023/03/14 02:38:52;;;;;;;1.98;0.55;;;;;;;;;;5059811;28;20484;-77
2023/03/14 02:41:19;;;;;;;1.77;0.60;;;;;;;;;;5064651;28;20124;-76
2023/03/14 02:43:45;;;;;;;1.63;0.68;;;;;;;;;;5061552;28;20128;-77
2023/03/14 02:46:17;;;;;;;2.80;0.50;;;;;;;;;;5076704;28;20086;-76
2023/03/14 02:48:49;;;;;;;1.65;0.63;;;;;;;;;;5076450;28;20521;-76
2023/03/14 02:51:16;;;;;;;1.23;0.60;;;;;;;;;;5074263;28;20127;-76
2023/03/14 02:53:43;;;;;;;1.75;0.80;;;;;;;;;;5070154;28;20044;-76
2023/03/14 02:56:10;;;;;;;2.78;0.80;;;;;;;;;;5075546;28;20079;-76
2023/03/14 02:58:37;;;;;;;1.73;0.70;;;;;;;;;;5075923;28;20484;-76
2023/03/14 03:01:04;;;;;;;1.50;0.70;;;;;;;;;;5075625;28;20049;-76
2023/03/14 03:03:33;;;;;;;1.58;0.60;;;;;;;;;;5064026;28;20056;-76
2023/03/14 03:05:59;;;;;;;1.35;0.52;;;;;;;;;;5059773;28;20128;-76
2023/03/14 03:08:28;;;;;;;1.45;0.50;;;;;;;;;;5055575;28;20052;-77
2023/03/14 03:10:55;;;;;;;0.32;0.30;;;;;;;;;;5055138;28;20049;-76
2023/03/14 03:13:22;;;;;;;0.70;0.45;;;;;;;;;;5059957;28;20072;-76
2023/03/14 03:15:48;;;;;;;0.93;0.40;;;;;;;;;;5073496;28;20044;-76
2023/03/14 03:18:15;;;;;;;1.45;0.38;;;;;;;;;;5080779;28;20076;-77
2023/03/14 03:20:43;;;;;;;0.88;0.40;;;;;;;;;;5076129;28;20055;-76
2023/03/14 03:23:09;;;;;;;2.08;0.50;;;;;;;;;;5077098;28;20055;-76
2023/03/14 03:25:36;;;;;;;4.05;0.55;;;;;;;;;;5068733;28;20044;-75
2023/03/14 03:28:07;;;;;;;1.73;0.50;;;;;;;;;;5077938;28;20470;-76
2023/03/14 03:30:37;;;;;;;0.93;0.40;;;;;;;;;;5079790;28;20084;-76
2023/03/14 03:33:04;;;;;;;1.15;0.50;;;;;;;;;;5076711;28;20049;-76
2023/03/14 03:35:30;;;;;;;1.27;0.65;;;;;;;;;;5068527;28;20045;-76
2023/03/14 03:37:58;;;;;;;0.60;0.40;;;;;;;;;;5057995;28;20049;-76
2023/03/14 03:40:25;;;;;;;1.75;0.93;;;;;;;;;;5054588;28;20412;-76
2023/03/14 03:42:52;;;;;;;0.90;0.45;;;;;;;;;;5054719;28;20076;-76
2023/03/14 03:45:19;;;;;;;1.13;0.45;;;;;;;;;;5066065;28;20041;-76
2023/03/14 03:47:46;;;;;;;0.50;0.20;;;;;;;;;;5054406;28;20041;-76
2023/03/14 03:50:12;;;;;;;1.58;0.40;;;;;;;;;;5054769;28;20083;-76
2023/03/14 03:52:39;;;;;;;1.05;0.40;;;;;;;;;;5055128;28;20045;-76
2023/03/14 03:55:08;;;;;;;1.63;0.80;;;;;;;;;;5054706;28;20048;-76
2023/03/14 03:57:35;;;;;;;1.92;0.40;;;;;;;;;;5070764;28;20048;-77
2023/03/14 04:00:01;;;;;;;1.23;0.60;;;;;;;;;;5074969;28;20051;-76
2023/03/14 04:02:28;;;;;;;1.27;0.40;;;;;;;;;;5074882;28;20041;-76
2023/03/14 04:04:54;;;;;;;1.50;0.35;;;;;;;;;;5074893;28;20104;-76
2023/03/14 04:07:21;;;;;;;0.93;0.32;;;;;;;;;;5067717;28;20052;-77
2023/03/14 04:09:48;;;;;;;0.60;0.40;;;;;;;;;;5055099;28;20055;-76
2023/03/14 04:12:15;;;;;;;1.48;0.40;;;;;;;;;;5054928;28;20048;-76
2023/03/14 04:14:42;;;;;;;1.13;0.30;;;;;;;;;;5062954;28;20054;-76
2023/03/14 04:17:09;;;;;;;0.68;0.30;;;;;;;;;;5067890;28;20392;-77
2023/03/14 04:19:35;;;;;;;0.63;0.40;;;;;;;;;;5072858;28;20048;-76
2023/03/14 04:22:03;;;;;;;1.23;0.57;;;;;;;;;;5074811;28;20082;-77
2023/03/14 04:24:29;;;;;;;0.60;0.30;;;;;;;;;;5074440;28;20124;-77
2023/03/14 04:26:56;;;;;;;0.98;0.50;;;;;;;;;;5075446;28;20128;-77
2023/03/14 04:29:24;;;;;;;0.65;0.40;;;;;;;;;;5063010;28;20096;-76
2023/03/14 04:31:50;;;;;;;0.80;0.40;;;;;;;;;;5056205;28;20049;-77
2023/03/14 04:34:17;;;;;;;0.98;0.40;;;;;;;;;;5056051;28;20492;-77
2023/03/14 04:36:44;;;;;;;2.92;0.47;;;;;;;;;;5058206;28;20514;-76
2023/03/14 04:39:11;;;;;;;0.52;0.40;;;;;;;;;;5069593;28;20072;-76
2023/03/14 04:41:38;;;;;;;0.73;0.30;;;;;;;;;;5074551;28;20453;-76
2023/03/14 04:44:05;;;;;;;1.05;0.30;;;;;;;;;;5075698;28;20044;-76
2023/03/14 04:46:34;;;;;;;0.55;0.40;;;;;;;;;;5075792;28;20136;-76
2023/03/14 04:49:01;;;;;;;0.85;0.30;;;;;;;;;;5074776;28;20051;-76
2023/03/14 04:51:27;;;;;;;0.95;0.32;;;;;;;;;;5056732;28;20136;-76
2023/03/14 04:53:55;;;;;;;0.55;0.30;;;;;;;;;;5056349;28;20110;-76
2023/03/14 04:56:21;;;;;;;0.20;0.20;;;;;;;;;;5055640;28;20583;-76
2023/03/14 04:58:48;;;;;;;0.63;0.55;;;;;;;;;;5059021;28;20128;-77
2023/03/14 05:01:15;;;;;;;0.55;0.30;;;;;;;;;;5055367;28;20041;-77
2023/03/14 05:03:43;;;;;;;0.90;0.38;;;;;;;;;;5052665;28;20482;-76
2023/03/14 05:06:10;;;;;;;0.80;0.30;;;;;;;;;;5052570;28;20552;-76
2023/03/14 05:08:36;;;;;;;2.95;0.45;;;;;;;;;;5052895;28;20579;-77
2023/03/14 05:11:03;;;;;;;1.08;0.50;;;;;;;;;;5053012;28;20048;-76
2023/03/14 05:13:30;;;;;;;3.67;0.50;;;;;;;;;;5053064;28;20060;-76
2023/03/14 05:16:05;;;;;;;1.13;0.50;;;;;;;;;;5056348;28;20049;-77
2023/03/14 05:18:31;;;;;;;0.65;0.30;;;;;;;;;;5052507;28;20458;-77
2023/03/14 05:20:59;;;;;;;1.20;0.55;;;;;;;;;;5060821;28;20127;-77
2023/03/14 05:23:26;;;;;;;1.65;0.40;;;;;;;;;;5072484;28;20485;-76
2023/03/14 05:25:53;;;;;;;0.55;0.40;;;;;;;;;;5072158;28;20144;-77
2023/03/14 05:28:20;;;;;;;0.90;0.40;;;;;;;;;;5085519;22;20894;-81
2023/03/14 05:30:46;;;;;;;1.30;0.50;;;;;;;;;;5020227;28;20140;-82
2023/03/14 05:33:13;;;;;;;0.45;0.30;;;;;;;;;;5018432;28;20058;-83
2023/03/14 05:35:40;;;;;;;0.95;0.40;;;;;;;;;;5018675;28;20053;-82
2023/03/14 05:38:08;;;;;;;0.68;0.32;;;;;;;;;;5017445;28;20487;-82
2023/03/14 05:40:35;;;;;;;1.25;0.40;;;;;;;;;;5017964;28;20133;-82
2023/03/14 05:43:01;;;;;;;0.68;0.50;;;;;;;;;;5019522;28;20137;-81
2023/03/14 05:45:28;;;;;;;1.77;0.60;;;;;;;;;;4991962;28;20042;-82
2023/03/14 05:47:55;;;;;;;0.60;0.30;;;;;;;;;;4983695;28;20141;-82
2023/03/14 05:50:21;;;;;;;1.52;0.52;;;;;;;;;;4984235;28;20086;-81
2023/03/14 05:52:48;;;;;;;1.13;0.50;;;;;;;;;;4988568;28;20222;-82
2023/03/14 05:55:16;;;;;;;0.90;0.40;;;;;;;;;;4980492;28;20471;-83
2023/03/14 05:57:42;;;;;;;0.88;0.50;;;;;;;;;;4981838;28;20472;-81
2023/03/14 06:00:10;;;;;;;1.40;0.57;;;;;;;;;;4981072;28;20046;-83
2023/03/14 06:02:37;;;;;;;1.00;0.47;;;;;;;;;;4981595;28;20061;-82
2023/03/14 06:05:05;;;;;;;1.50;0.60;;;;;;;;;;4993916;28;20043;-84
2023/03/14 06:07:31;;;;;;;1.40;0.50;;;;;;;;;;4996693;28;20047;-81
2023/03/14 06:09:58;;;;;;;1.13;0.60;;;;;;;;;;4982564;28;20133;-84
2023/03/14 06:12:26;;;;;;;1.52;0.60;;;;;;;;;;4993084;28;20043;-82
2023/03/14 06:14:53;;;;;;;2.42;0.75;;;;;;;;;;5004054;28;20057;-83
2023/03/14 06:17:19;;;;;;;1.80;0.63;;;;;;;;;;5005852;28;20170;-81
2023/03/14 06:19:46;;;;;;;2.45;0.77;;;;;;;;;;5003872;28;20073;-82
2023/03/14 06:22:13;;;;;;;3.85;0.90;;;;;;;;;;4999359;28;20106;-81
2023/03/14 06:24:39;;;;;;;3.00;1.08;;;;;;;;;;4984517;28;20395;-83
2023/03/14 06:27:06;;;;;;;2.50;1.00;;;;;;;;;;4984355;28;20709;-83
2023/03/14 06:29:34;;;;;;;2.17;0.73;;;;;;;;;;4980963;28;20086;-81
2023/03/14 06:32:01;;;;;;;3.17;1.17;;;;;;;;;;4978826;28;20081;-82
2023/03/14 06:34:28;;;;;;;2.88;0.88;;;;;;;;;;4996357;28;20473;-80
2023/03/14 06:36:55;;;;;;;1.52;0.60;;;;;;;;;;5000649;28;20528;-83
2023/03/14 06:39:21;;;;;;;4.68;1.15;;;;;;;;;;4999479;28;20112;-83
2023/03/14 06:41:55;;;;;;;3.55;1.23;;;;;;;;;;4999306;28;20074;-83
2023/03/14 06:44:21;;;;;;;2.55;0.88;;;;;;;;;;4992848;28;20051;-81
2023/03/14 06:46:49;;;;;;;2.45;0.75;;;;;;;;;;4992488;28;20057;-83
2023/03/14 06:49:16;;;;;;;2.72;0.82;;;;;;;;;;4992837;28;20114;-81
2023/03/14 06:51:42;;;;;;;2.35;0.90;;;;;;;;;;4979050;28;20485;-83
2023/03/14 06:54:09;;;;;;;2.97;1.10;;;;;;;;;;4994777;28;20081;-83
2023/03/14 06:56:36;;;;;;;3.28;0.82;;;;;;;;;;4998257;28;20121;-82
2023/03/14 06:59:02;;;;;;;2.10;1.02;;;;;;;;;;4996453;28;20053;-82
2023/03/14 07:01:32;;;;;;;2.65;0.88;;;;;;;;;;5001156;28;20042;-80
2023/03/14 07:04:00;;;;;;;4.65;0.80;;;;;;;;;;4999580;28;20046;-83
2023/03/14 07:06:29;;;;;;;3.15;1.25;;;;;;;;;;4993187;28;20077;-80
2023/03/14 07:08:55;;;;;;;2.50;0.85;;;;;;;;;;4986561;28;20043;-81
2023/03/14 07:11:22;;;;;;;3.47;0.80;;;;;;;;;;4982614;28;20082;-82
2023/03/14 07:13:49;;;;;;;4.35;1.00;;;;;;;;;;4986358;28;20061;-82
2023/03/14 07:16:15;;;;;;;2.92;0.82;;;;;;;;;;4997472;28;20529;-82
2023/03/14 07:18:42;;;;;;;2.50;0.93;;;;;;;;;;4997582;28;20086;-82
2023/03/14 07:21:10;;;;;;;2.95;0.90;;;;;;;;;;5001435;28;20082;-83
2023/03/14 07:23:37;;;;;;;1.88;0.80;;;;;;;;;;5004484;28;20525;-80
2023/03/14 07:26:04;;;;;;;4.40;1.23;;;;;;;;;;5001106;28;20129;-82
2023/03/14 07:28:31;;;;;;;2.72;0.88;;;;;;;;;;5001557;28;20057;-82
2023/03/14 07:30:57;;;;;;;2.45;1.00;;;;;;;;;;5002732;28;20046;-83
2023/03/14 07:33:24;;;;;;;3.65;0.90;;;;;;;;;;5001168;28;20401;-82
2023/03/14 07:35:51;;;;;;;3.72;0.70;;;;;;;;;;5006510;28;20050;-83
2023/03/14 07:38:19;;;;;;;3.15;0.70;;;;;;;;;;5006395;28;20068;-83
2023/03/14 07:40:46;;;;;;;2.72;1.45;;;;;;;;;;5009389;28;20085;-81
2023/03/14 07:43:12;;;;;;;2.33;0.73;;;;;;;;;;5001799;28;20074;-82
2023/03/14 07:45:39;;;;;;;1.65;0.63;;;;;;;;;;4989643;28;20434;-83
2023/03/14 07:48:06;;;;;;;4.05;0.80;;;;;;;;;;4991126;28;20061;-83
2023/03/14 07:50:32;;;;;;;2.20;0.70;;;;;;;;;;4990076;28;20074;-82
2023/03/14 07:52:59;;;;;;;1.83;0.60;;;;;;;;;;4989371;28;20074;-80
2023/03/14 07:55:27;;;;;;;1.50;0.60;;;;;;;;;;4995041;28;20121;-81
2023/03/14 07:57:54;;;;;;;2.08;0.80;;;;;;;;;;5003090;28;20425;-84
2023/03/14 08:00:21;;;;;;;2.83;0.90;;;;;;;;;;4985097;28;20055;-83
2023/03/14 08:02:48;;;;;;;2.33;0.60;;;;;;;;;;4983527;28;20061;-78
2023/03/14 08:05:14;;;;;;;2.13;0.60;;;;;;;;;;4988875;28;20615;-82
2023/03/14 08:07:41;;;;;;;1.70;0.93;;;;;;;;;;5007919;28;20034;-82
2023/03/14 08:10:09;;;;;;;0.98;0.50;;;;;;;;;;5009863;28;20138;-82
2023/03/14 08:12:37;;;;;;;1.10;0.52;;;;;;;;;;5011437;28;20089;-83
2023/03/14 08:15:04;;;;;;;1.15;0.40;;;;;;;;;;5001122;28;20078;-82
2023/03/14 08:17:31;;;;;;;1.08;0.52;;;;;;;;;;4991277;28;20050;-82
2023/03/14 08:19:58;;;;;;;0.80;0.40;;;;;;;;;;4990117;28;20059;-83
2023/03/14 08:22:25;;;;;;;1.73;0.40;;;;;;;;;;5005113;28;20057;-83
2023/03/14 08:24:51;;;;;;;2.63;0.60;;;;;;;;;;5001387;28;20473;-79
2023/03/14 08:27:18;;;;;;;3.03;0.68;;;;;;;;;;4993091;28;20133;-80
2023/03/14 08:29:46;;;;;;;2.92;0.40;;;;;;;;;;4988686;28;20046;-81
2023/03/14 08:32:13;;;;;;;1.73;0.60;;;;;;;;;;4980650;28;20574;-77
2023/03/14 08:34:40;;;;;;;1.48;0.40;;;;;;;;;;4979613;28;20054;-81
2023/03/14 08:37:07;;;;;;;1.38;0.60;;;;;;;;;;4989134;28;20049;-84
2023/03/14 08:39:33;;;;;;;4.88;0.85;;;;;;;;;;4999664;28;20137;-85
2023/03/14 08:42:00;;;;;;;1.35;0.52;;;;;;;;;;5002377;28;20038;-82
2023/03/14 08:44:27;;;;;;;1.17;0.70;;;;;;;;;;5003952;28;20050;-83
2023/03/14 08:46:55;;;;;;;1.52;0.60;;;;;;;;;;5002201;28;20106;-84
2023/03/14 08:49:22;;;;;;;1.50;0.40;;;;;;;;;;5001406;28;20189;-84
2023/03/14 08:51:49;;;;;;;0.98;0.38;;;;;;;;;;5002112;28;20054;-84
2023/03/14 08:54:15;;;;;;;1.80;0.60;;;;;;;;;;5002513;28;20109;-83
2023/03/14 08:56:42;;;;;;;1.00;0.50;;;;;;;;;;5003039;28;20062;-84
2023/03/14 08:59:10;;;;;;;1.52;0.50;;;;;;;;;;5003030;28;20086;-83
2023/03/14 09:01:37;;;;;;;0.63;0.40;;;;;;;;;;5010925;28;20046;-81
2023/03/14 09:04:06;;;;;;;2.58;0.60;;;;;;;;;;5014376;28;20111;-82
2023/03/14 09:06:33;;;;;;;1.70;0.60;;;;;;;;;;5006310;28;20046;-83
2023/03/14 09:09:00;;;;;;;2.83;0.70;;;;;;;;;;5005797;28;20047;-82
2023/03/14 09:11:26;;;;;;;1.02;0.60;;;;;;;;;;5004733;28;20042;-84
2023/03/14 09:13:53;;;;;;;1.70;0.70;;;;;;;;;;5004777;28;20047;-82
2023/03/14 09:16:20;;;;;;;0.77;0.35;;;;;;;;;;5002786;28;20080;-81
2023/03/14 09:18:47;;;;;;;2.50;0.60;;;;;;;;;;5005770;28;20106;-84
2023/03/14 09:21:15;;;;;;;2.55;0.70;;;;;;;;;;5005980;28;20082;-84
2023/03/14 09:23:42;;;;;;;1.63;0.60;;;;;;;;;;5006038;28;20081;-83
2023/03/14 09:26:09;;;;;;;1.65;0.60;;;;;;;;;;4997054;28;20078;-85
2023/03/14 09:28:36;;;;;;;3.05;0.55;;;;;;;;;;4991905;28;20074;-83
2023/03/14 09:31:07;;;;;;;1.02;0.50;;;;;;;;;;4985847;28;20046;-84
2023/03/14 09:33:34;;;;;;;1.75;0.50;;;;;;;;;;4984619;28;20050;-83
2023/03/14 09:36:01;;;;;;;0.70;0.70;;;;;;;;;;4996060;28;20131;-83
2023/03/14 09:38:30;;;;;;;2.47;0.52;;;;;;;;;;4980930;28;20201;-81
2023/03/14 09:40:59;;;;;;;0.82;0.40;;;;;;;;;;4981449;28;20101;-81
2023/03/14 09:43:29;;;;;;;1.70;0.60;;;;;;;;;;4983573;28;20054;-83
2023/03/14 09:45:55;;;;;;;4.25;0.70;;;;;;;;;;4986461;28;20046;-82
2023/03/14 09:48:25;;;;;;;1.42;0.60;;;;;;;;;;5001964;28;20105;-82
2023/03/14 09:50:55;;;;;;;2.05;0.60;;;;;;;;;;5002309;28;20109;-83
2023/03/14 09:53:27;;;;;;;3.33;0.80;;;;;;;;;;5001983;28;20042;-83
2023/03/14 09:55:58;;;;;;;1.75;0.52;;;;;;;;;;4985316;28;20051;-81
2023/03/14 09:58:26;;;;;;;1.40;0.60;;;;;;;;;;4986385;28;20042;-86
2023/03/14 10:00:56;;;;;;;1.23;0.55;;;;;;;;;;4991013;28;20042;-83
2023/03/14 10:03:27;;;;;;;4.03;0.65;;;;;;;;;;5000448;28;20057;-84
2023/03/14 10:05:57;;;;;;;1.40;0.50;;;;;;;;;;4988253;28;20042;-84
2023/03/14 10:08:23;;;;;;;2.50;0.60;;;;;;;;;;4993719;28;20077;-84
2023/03/14 10:10:50;;;;;;;2.33;0.60;;;;;;;;;;4991548;28;20120;-84
2023/03/14 10:13:21;;;;;;;4.43;1.33;;;;;;;;;;4998163;28;20140;-83
2023/03/14 10:15:52;;;;;;;6.45;1.00;;;;;;;;;;4984433;28;20130;-84
2023/03/14 10:18:19;;;;;;;4.60;1.15;;;;;;;;;;4984862;28;20073;-84
2023/03/14 10:20:49;;;;;;;4.00;1.08;;;;;;;;;;5000612;28;20054;-85
2023/03/14 10:23:28;;;;;;;4.40;0.90;;;;;;;;;;5001506;28;20150;-84
2023/03/14 10:26:07;;;;;;;3.40;0.77;;;;;;;;;;5001025;28;20048;-85
2023/03/14 10:28:40;;;;;;;5.00;1.10;;;;;;;;;;5001670;28;20516;-85
2023/03/14 10:31:07;;;;;;;3.00;0.80;;;;;;;;;;4999652;28;20050;-83
2023/03/14 10:33:36;;;;;;;2.35;0.90;;;;;;;;;;4999410;28;20501;-85
2023/03/14 10:36:28;;;;;;;3.22;1.00;;;;;;;;;;4988427;28;20763;-86
2023/03/14 10:39:00;;;;;;;2.05;0.60;;;;;;;;;;4987951;28;20093;-84
2023/03/14 10:41:28;;;;;;;2.17;0.70;;;;;;;;;;4988654;28;20038;-83
2023/03/14 10:43:59;;;;;;;2.38;0.60;;;;;;;;;;4989892;28;20042;-83
2023/03/14 10:46:30;;;;;;;1.20;0.55;;;;;;;;;;4986978;28;20073;-84
2023/03/14 10:48:57;;;;;;;2.13;0.50;;;;;;;;;;4994936;28;20061;-86
2023/03/14 10:51:27;;;;;;;1.20;0.40;;;;;;;;;;4987115;28;20077;-84
2023/03/14 10:54:01;;;;;;;2.38;0.40;;;;;;;;;;5009834;28;20065;-87
2023/03/14 10:56:34;;;;;;;1.48;0.50;;;;;;;;;;5017035;28;20050;-85
2023/03/14 10:59:03;;;;;;;1.30;0.50;;;;;;;;;;5019315;28;20050;-83
2023/03/14 11:01:41;;;;;;;1.65;0.65;;;;;;;;;;5008843;28;20060;-84
2023/03/14 11:04:22;;;;;;;2.22;0.65;;;;;;;;;;5001382;28;20070;-84
2023/03/14 11:06:58;;;;;;;2.22;0.60;;;;;;;;;;5001888;28;20137;-82
2023/03/14 11:09:29;;;;;;;3.13;0.60;;;;;;;;;;5000651;28;20046;-86
2023/03/14 11:12:03;;;;;;;0.47;0.40;;;;;;;;;;4983302;28;20493;-82
2023/03/14 11:14:39;;;;;;;1.90;0.60;;;;;;;;;;4985939;28;20489;-84
2023/03/14 11:17:17;;;;;;;1.83;0.88;;;;;;;;;;4981298;28;20071;-84
2023/03/14 11:19:56;;;;;;;0.95;0.45;;;;;;;;;;4981897;28;20054;-85
2023/03/14 11:22:27;;;;;;;2.13;0.60;;;;;;;;;;4982891;28;20654;-85
2023/03/14 11:25:13;;;;;;;0.88;0.40;;;;;;;;;;4982351;28;20046;-84
2023/03/14 11:27:44;;;;;;;0.80;0.32;;;;;;;;;;4981519;28;20058;-84
2023/03/14 11:30:24;;;;;;;0.60;0.45;;;;;;;;;;4982347;28;20086;-86
2023/03/14 11:33:00;;;;;;;1.08;0.40;;;;;;;;;;4986272;28;20417;-84
2023/03/14 11:35:30;;;;;;;1.15;0.40;;;;;;;;;;5000540;28;20050;-85
2023/03/14 11:38:05;;;;;;;1.17;0.63;;;;;;;;;;5001062;28;20078;-86
2023/03/14 11:40:33;;;;;;;1.13;0.50;;;;;;;;;;4999361;28;20118;-84
2023/03/14 11:43:13;;;;;;;1.15;0.65;;;;;;;;;;5001215;28;20046;-83
2023/03/14 11:45:43;;;;;;;1.38;0.50;;;;;;;;;;5001359;28;20066;-86
2023/03/14 11:48:24;;;;;;;1.50;0.43;;;;;;;;;;5001342;28;20046;-85
2023/03/14 11:50:53;;;;;;;2.08;1.08;;;;;;;;;;5001716;28;20050;-85
2023/03/14 11:53:25;;;;;;;1.08;0.47;;;;;;;;;;5001884;28;20077;-84
2023/03/14 11:56:12;;;;;;;1.38;0.57;;;;;;;;;;5004278;28;20050;-84
2023/03/14 11:58:56;;;;;;;0.82;0.40;;;;;;;;;;5017082;28;20511;-84
2023/03/14 12:01:33;;;;;;;0.80;0.50;;;;;;;;;;4996088;28;20043;-83
2023/03/14 12:04:07;;;;;;;1.52;0.60;;;;;;;;;;5000459;28;20052;-83
2023/03/14 12:06:44;;;;;;;1.58;0.50;;;;;;;;;;5003110;28;20052;-85
2023/03/14 12:09:11;;;;;;;3.22;0.40;;;;;;;;;;5000803;28;20081;-82
2023/03/14 12:11:44;;;;;;;0.90;0.40;;;;;;;;;;4999231;28;20110;-80
2023/03/14 12:14:24;;;;;;;0.88;0.45;;;;;;;;;;4999294;28;20134;-80
2023/03/14 12:16:57;;;;;;;1.43;0.40;;;;;;;;;;4992144;28;20453;-80
2023/03/14 12:19:33;;;;;;;1.50;0.50;;;;;;;;;;4991712;28;20050;-81
2023/03/14 12:22:08;;;;;;;1.50;0.40;;;;;;;;;;5012244;28;20133;-80
2023/03/14 12:24:37;;;;;;;1.50;0.40;;;;;;;;;;4997614;28;20309;-80
2023/03/14 12:27:14;;;;;;;0.88;0.50;;;;;;;;;;4997874;28;20133;-80
2023/03/14 12:30:00;;;;;;;0.77;0.35;;;;;;;;;;4997128;28;20051;-80
2023/03/14 12:32:28;;;;;;;1.05;0.30;;;;;;;;;;5001841;28;20042;-81
2023/03/14 12:34:55;;;;;;;1.25;0.80;;;;;;;;;;4996747;28;20514;-82
2023/03/14 12:37:29;;;;;;;1.50;0.50;;;;;;;;;;4998903;28;20090;-82
2023/03/14 12:40:11;;;;;;;4.05;0.52;;;;;;;;;;5003421;28;20085;-80
2023/03/14 12:42:45;;;;;;;3.03;0.47;;;;;;;;;;5005292;28;20049;-84
2023/03/14 12:45:23;;;;;;;0.95;0.45;;;;;;;;;;4994091;28;20046;-80
2023/03/14 12:47:55;;;;;;;3.03;0.40;;;;;;;;;;4986562;28;20043;-79
2023/03/14 12:50:27;;;;;;;1.90;0.57;;;;;;;;;;4997566;28;20137;-78
2023/03/14 12:53:23;;;;;;;0.70;0.50;;;;;;;;;;4999568;28;20047;-78
2023/03/14 12:55:59;;;;;;;2.38;0.50;;;;;;;;;;4995462;28;20086;-78
2023/03/14 12:58:32;;;;;;;0.60;0.40;;;;;;;;;;5002032;28;20080;-78
2023/03/14 13:01:02;;;;;;;0.82;0.30;;;;;;;;;;4998906;28;20078;-79
2023/03/14 13:03:43;;;;;;;1.60;0.30;;;;;;;;;;4998012;28;20044;-80
2023/03/14 13:06:11;;;;;;;1.15;0.47;;;;;;;;;;4997502;28;20141;-80
2023/03/14 13:08:40;;;;;;;3.40;0.50;;;;;;;;;;4996867;28;20038;-79
2023/03/14 13:11:11;;;;;;;1.80;0.60;;;;;;;;;;4996411;28;20074;-80
2023/03/14 13:13:43;;;;;;;0.32;0.30;;;;;;;;;;4987050;28;20053;-80
2023/03/14 13:16:15;;;;;;;0.60;0.30;;;;;;;;;;4997945;28;20058;-79
2023/03/14 13:18:46;;;;;;;1.95;0.38;;;;;;;;;;4998870;28;20107;-79
2023/03/14 13:21:16;;;;;;;1.52;0.45;;;;;;;;;;4998094;28;20421;-79
2023/03/14 13:23:55;;;;;;;1.77;0.50;;;;;;;;;;4999644;28;20043;-79
2023/03/14 13:26:23;;;;;;;0.55;0.30;;;;;;;;;;4998343;28;20050;-79
2023/03/14 13:28:50;;;;;;;1.20;0.40;;;;;;;;;;4996638;28;20111;-80
2023/03/14 13:31:22;;;;;;;2.45;0.52;;;;;;;;;;4990719;28;20053;-80
2023/03/14 13:33:59;;;;;;;1.13;0.28;;;;;;;;;;4982852;28;20129;-80
2023/03/14 13:36:27;;;;;;;1.20;0.20;;;;;;;;;;4988442;28;20049;-80
2023/03/14 13:38:58;;;;;;;0.50;0.30;;;;;;;;;;4993893;28;20058;-80
2023/03/14 13:41:25;;;;;;;0.50;0.40;;;;;;;;;;4986052;28;20049;-79
2023/03/14 13:43:52;;;;;;;0.50;0.30;;;;;;;;;;4998636;28;20421;-79
2023/03/14 13:46:22;;;;;;;1.30;0.30;;;;;;;;;;4981297;28;20126;-79
2023/03/14 13:48:52;;;;;;;3.00;0.40;;;;;;;;;;4993674;28;20561;-79
2023/03/14 13:51:24;;;;;;;0.60;0.30;;;;;;;;;;4995472;28;20050;-79
2023/03/14 13:53:53;;;;;;;1.50;0.38;;;;;;;;;;4990616;28;20065;-80
2023/03/14 13:56:21;;;;;;;1.52;0.32;;;;;;;;;;4987727;28;20454;-80
2023/03/14 13:58:47;;;;;;;0.40;0.20;;;;;;;;;;4996318;28;20050;-80
2023/03/14 14:01:17;;;;;;;0.25;0.25;;;;;;;;;;4996827;28;20074;-79
2023/03/14 14:03:47;;;;;;;0.30;0.20;;;;;;;;;;4992181;28;20077;-79
2023/03/14 14:06:26;;;;;;;0.45;0.20;;;;;;;;;;4992927;28;20311;-80
2023/03/14 14:08:53;;;;;;;0.45;0.20;;;;;;;;;;4979500;28;20047;-80
2023/03/14 14:11:28;;;;;;;0.25;0.20;;;;;;;;;;4992475;28;20085;-80
2023/03/14 14:13:56;;;;;;;1.13;0.30;;;;;;;;;;4993557;28;20066;-82
2023/03/14 14:16:28;;;;;;;0.85;0.30;;;;;;;;;;4985034;28;20039;-80
2023/03/14 14:18:57;;;;;;;1.40;0.40;;;;;;;;;;4994742;28;20073;-80
2023/03/14 14:21:25;;;;;;;0.85;0.25;;;;;;;;;;4994950;28;20513;-79
2023/03/14 14:23:52;;;;;;;0.98;0.40;;;;;;;;;;4997098;28;20050;-80
2023/03/14 14:26:20;;;;;;;0.80;0.30;;;;;;;;;;4996513;28;20492;-80
2023/03/14 14:28:49;;;;;;;1.45;0.30;;;;;;;;;;4996074;28;20085;-82
2023/03/14 14:31:21;;;;;;;2.42;0.50;;;;;;;;;;4997492;28;20046;-80
2023/03/14 14:33:55;;;;;;;0.25;0.20;;;;;;;;;;5000748;28;20143;-80
2023/03/14 14:36:26;;;;;;;1.35;0.43;;;;;;;;;;5001223;28;20058;-79
2023/03/14 14:38:54;;;;;;;1.17;0.50;;;;;;;;;;5004278;28;20062;-81
2023/03/14 14:41:20;;;;;;;0.90;0.40;;;;;;;;;;5001799;28;20082;-79
2023/03/14 14:43:48;;;;;;;1.17;0.40;;;;;;;;;;5001247;28;20125;-79
2023/03/14 14:46:20;;;;;;;3.05;0.60;;;;;;;;;;4996828;28;20111;-80
2023/03/14 14:48:49;;;;;;;0.50;0.30;;;;;;;;;;4999820;28;20050;-79
2023/03/14 14:51:26;;;;;;;2.35;0.50;;;;;;;;;;5000316;28;20050;-81
2023/03/14 14:54:03;;;;;;;2.78;0.50;;;;;;;;;;4986384;28;20055;-79